sensor_id;sensor_type;location;lat;lon;timestamp;P1;durP1;ratioP1;P2;durP2;ratioP2
25905;SDS011;13713;52.552;13.204;2023-06-14T00:00:12;9.50;;;8.27;;
25905;SDS011;13713;52.552;13.204;2023-06-14T00:02:39;11.73;;;8.80;;
25905;SDS011;13713;52.552;13.204;2023-06-14T00:05:06;10.00;;;8.85;;
25905;SDS011;13713;52.552;13.204;2023-06-14T00:07:33;10.27;;;8.77;;
25905;SDS011;13713;52.552;13.204;2023-06-14T00:10:03;9.70;;;8.70;;
25905;SDS011;13713;52.552;13.204;2023-06-14T00:12:30;9.63;;;8.18;;
25905;SDS011;13713;52.552;13.204;2023-06-14T00:14:56;9.88;;;8.27;;
25905;SDS011;13713;52.552;13.204;2023-06-14T00:17:22;9.48;;;8.38;;
25905;SDS011;13713;52.552;13.204;2023-06-14T00:19:48;10.38;;;8.75;;
25905;SDS011;13713;52.552;13.204;2023-06-14T00:22:14;11.55;;;9.00;;
25905;SDS011;13713;52.552;13.204;2023-06-14T00:24:40;10.32;;;8.65;;
25905;SDS011;13713;52.552;13.204;2023-06-14T00:27:06;11.18;;;8.85;;
25905;SDS011;13713;52.552;13.204;2023-06-14T00:29:32;10.48;;;8.77;;
25905;SDS011;13713;52.552;13.204;2023-06-14T00:31:58;9.30;;;8.07;;
25905;SDS011;13713;52.552;13.204;2023-06-14T00:34:25;12.68;;;9.57;;
25905;SDS011;13713;52.552;13.204;2023-06-14T00:36:51;10.38;;;9.20;;
25905;SDS011;13713;52.552;13.204;2023-06-14T00:39:16;12.23;;;8.60;;
25905;SDS011;13713;52.552;13.204;2023-06-14T00:41:42;10.43;;;9.27;;
25905;SDS011;13713;52.552;13.204;2023-06-14T00:44:08;9.75;;;8.45;;
25905;SDS011;13713;52.552;13.204;2023-06-14T00:46:33;10.68;;;8.73;;
25905;SDS011;13713;52.552;13.204;2023-06-14T00:48:59;9.60;;;8.30;;
25905;SDS011;13713;52.552;13.204;2023-06-14T00:51:26;9.48;;;8.30;;
25905;SDS011;13713;52.552;13.204;2023-06-14T00:53:52;10.70;;;9.15;;
25905;SDS011;13713;52.552;13.204;2023-06-14T00:56:18;10.02;;;8.65;;
25905;SDS011;13713;52.552;13.204;2023-06-14T00:58:49;10.43;;;9.05;;
25905;SDS011;13713;52.552;13.204;2023-06-14T01:01:16;9.57;;;8.57;;
25905;SDS011;13713;52.552;13.204;2023-06-14T01:03:41;9.73;;;8.43;;
25905;SDS011;13713;52.552;13.204;2023-06-14T01:11:50;9.77;;;8.13;;
25905;SDS011;13713;52.552;13.204;2023-06-14T01:14:24;11.43;;;9.13;;
25905;SDS011;13713;52.552;13.204;2023-06-14T01:16:52;9.85;;;8.55;;
25905;SDS011;13713;52.552;13.204;2023-06-14T01:19:20;9.85;;;8.63;;
25905;SDS011;13713;52.552;13.204;2023-06-14T01:21:48;9.38;;;8.38;;
25905;SDS011;13713;52.552;13.204;2023-06-14T01:24:16;10.23;;;8.13;;
25905;SDS011;13713;52.552;13.204;2023-06-14T01:26:44;9.45;;;8.45;;
25905;SDS011;13713;52.552;13.204;2023-06-14T01:29:12;9.48;;;8.48;;
25905;SDS011;13713;52.552;13.204;2023-06-14T01:31:44;9.82;;;8.82;;
25905;SDS011;13713;52.552;13.204;2023-06-14T01:34:11;9.73;;;8.73;;
25905;SDS011;13713;52.552;13.204;2023-06-14T01:36:37;10.23;;;8.63;;
25905;SDS011;13713;52.552;13.204;2023-06-14T01:39:05;9.07;;;8.00;;
25905;SDS011;13713;52.552;13.204;2023-06-14T01:41:31;11.80;;;8.23;;
25905;SDS011;13713;52.552;13.204;2023-06-14T01:43:59;9.73;;;8.57;;
25905;SDS011;13713;52.552;13.204;2023-06-14T01:46:26;9.90;;;8.48;;
25905;SDS011;13713;52.552;13.204;2023-06-14T01:48:53;10.52;;;9.15;;
25905;SDS011;13713;52.552;13.204;2023-06-14T01:51:19;9.40;;;8.40;;
25905;SDS011;13713;52.552;13.204;2023-06-14T01:53:45;10.35;;;9.15;;
25905;SDS011;13713;52.552;13.204;2023-06-14T01:56:11;9.85;;;8.40;;
25905;SDS011;13713;52.552;13.204;2023-06-14T01:58:37;10.55;;;8.63;;
25905;SDS011;13713;52.552;13.204;2023-06-14T02:01:04;11.40;;;8.45;;
25905;SDS011;13713;52.552;13.204;2023-06-14T02:03:30;9.02;;;8.02;;
25905;SDS011;13713;52.552;13.204;2023-06-14T02:05:56;10.57;;;8.75;;
25905;SDS011;13713;52.552;13.204;2023-06-14T02:08:22;9.73;;;7.93;;
25905;SDS011;13713;52.552;13.204;2023-06-14T02:10:48;8.88;;;7.97;;
25905;SDS011;13713;52.552;13.204;2023-06-14T02:13:13;8.90;;;7.93;;
25905;SDS011;13713;52.552;13.204;2023-06-14T02:15:39;9.30;;;8.30;;
25905;SDS011;13713;52.552;13.204;2023-06-14T02:18:08;9.18;;;8.13;;
25905;SDS011;13713;52.552;13.204;2023-06-14T02:20:35;9.85;;;8.60;;
25905;SDS011;13713;52.552;13.204;2023-06-14T02:23:01;11.35;;;8.75;;
25905;SDS011;13713;52.552;13.204;2023-06-14T02:25:30;10.15;;;8.45;;
25905;SDS011;13713;52.552;13.204;2023-06-14T02:27:55;9.95;;;8.57;;
25905;SDS011;13713;52.552;13.204;2023-06-14T02:30:21;9.45;;;8.45;;
25905;SDS011;13713;52.552;13.204;2023-06-14T02:32:47;11.95;;;9.13;;
25905;SDS011;13713;52.552;13.204;2023-06-14T02:35:13;10.45;;;8.55;;
25905;SDS011;13713;52.552;13.204;2023-06-14T02:37:39;9.70;;;8.40;;
25905;SDS011;13713;52.552;13.204;2023-06-14T02:40:06;9.85;;;8.20;;
25905;SDS011;13713;52.552;13.204;2023-06-14T02:42:34;10.68;;;8.88;;
25905;SDS011;13713;52.552;13.204;2023-06-14T02:44:59;9.45;;;8.45;;
25905;SDS011;13713;52.552;13.204;2023-06-14T02:47:27;11.52;;;8.70;;
25905;SDS011;13713;52.552;13.204;2023-06-14T02:49:52;9.73;;;8.35;;
25905;SDS011;13713;52.552;13.204;2023-06-14T02:52:19;9.68;;;8.45;;
25905;SDS011;13713;52.552;13.204;2023-06-14T02:54:45;10.20;;;8.48;;
25905;SDS011;13713;52.552;13.204;2023-06-14T02:57:12;11.15;;;8.90;;
25905;SDS011;13713;52.552;13.204;2023-06-14T02:59:40;10.98;;;8.82;;
25905;SDS011;13713;52.552;13.204;2023-06-14T03:02:06;10.15;;;8.60;;
25905;SDS011;13713;52.552;13.204;2023-06-14T03:04:32;10.00;;;8.20;;
25905;SDS011;13713;52.552;13.204;2023-06-14T03:07:06;9.70;;;8.70;;
25905;SDS011;13713;52.552;13.204;2023-06-14T03:09:36;11.38;;;8.52;;
25905;SDS011;13713;52.552;13.204;2023-06-14T03:12:03;10.68;;;8.60;;
25905;SDS011;13713;52.552;13.204;2023-06-14T03:14:30;12.43;;;9.00;;
25905;SDS011;13713;52.552;13.204;2023-06-14T03:16:57;9.93;;;8.38;;
25905;SDS011;13713;52.552;13.204;2023-06-14T03:19:24;10.52;;;8.82;;
25905;SDS011;13713;52.552;13.204;2023-06-14T03:21:53;11.27;;;8.73;;
25905;SDS011;13713;52.552;13.204;2023-06-14T03:24:26;9.50;;;8.50;;
25905;SDS011;13713;52.552;13.204;2023-06-14T03:26:58;9.63;;;8.27;;
25905;SDS011;13713;52.552;13.204;2023-06-14T03:29:26;12.82;;;9.38;;
25905;SDS011;13713;52.552;13.204;2023-06-14T03:31:56;10.48;;;9.02;;
25905;SDS011;13713;52.552;13.204;2023-06-14T03:34:23;8.88;;;7.97;;
25905;SDS011;13713;52.552;13.204;2023-06-14T03:36:49;9.75;;;8.38;;
25905;SDS011;13713;52.552;13.204;2023-06-14T03:39:15;9.90;;;8.57;;
25905;SDS011;13713;52.552;13.204;2023-06-14T03:41:41;9.80;;;8.55;;
25905;SDS011;13713;52.552;13.204;2023-06-14T03:44:06;10.35;;;8.32;;
25905;SDS011;13713;52.552;13.204;2023-06-14T03:46:32;9.52;;;8.50;;
25905;SDS011;13713;52.552;13.204;2023-06-14T03:48:58;9.73;;;8.13;;
25905;SDS011;13713;52.552;13.204;2023-06-14T03:51:24;9.73;;;8.38;;
25905;SDS011;13713;52.552;13.204;2023-06-14T03:53:51;9.55;;;8.10;;
25905;SDS011;13713;52.552;13.204;2023-06-14T03:56:17;10.15;;;8.68;;
25905;SDS011;13713;52.552;13.204;2023-06-14T03:58:43;10.52;;;8.77;;
25905;SDS011;13713;52.552;13.204;2023-06-14T04:01:09;11.10;;;8.60;;
25905;SDS011;13713;52.552;13.204;2023-06-14T04:03:37;10.43;;;8.10;;
25905;SDS011;13713;52.552;13.204;2023-06-14T04:06:04;9.73;;;8.73;;
25905;SDS011;13713;52.552;13.204;2023-06-14T04:08:31;10.30;;;8.13;;
25905;SDS011;13713;52.552;13.204;2023-06-14T04:10:57;9.60;;;8.30;;
25905;SDS011;13713;52.552;13.204;2023-06-14T04:13:23;9.68;;;8.65;;
25905;SDS011;13713;52.552;13.204;2023-06-14T04:15:49;10.25;;;8.45;;
25905;SDS011;13713;52.552;13.204;2023-06-14T04:18:22;10.23;;;8.60;;
25905;SDS011;13713;52.552;13.204;2023-06-14T04:20:48;11.60;;;8.80;;
25905;SDS011;13713;52.552;13.204;2023-06-14T04:23:16;10.13;;;8.32;;
25905;SDS011;13713;52.552;13.204;2023-06-14T04:25:47;12.88;;;8.73;;
25905;SDS011;13713;52.552;13.204;2023-06-14T04:28:15;10.75;;;8.65;;
25905;SDS011;13713;52.552;13.204;2023-06-14T04:30:43;11.60;;;9.40;;
25905;SDS011;13713;52.552;13.204;2023-06-14T04:33:10;10.52;;;8.38;;
25905;SDS011;13713;52.552;13.204;2023-06-14T04:35:36;10.95;;;8.90;;
25905;SDS011;13713;52.552;13.204;2023-06-14T04:38:03;10.82;;;8.98;;
25905;SDS011;13713;52.552;13.204;2023-06-14T04:40:35;10.23;;;8.40;;
25905;SDS011;13713;52.552;13.204;2023-06-14T04:43:09;12.38;;;8.70;;
25905;SDS011;13713;52.552;13.204;2023-06-14T04:45:40;13.00;;;9.20;;
25905;SDS011;13713;52.552;13.204;2023-06-14T04:48:10;11.75;;;9.10;;
25905;SDS011;13713;52.552;13.204;2023-06-14T04:50:35;10.82;;;8.18;;
25905;SDS011;13713;52.552;13.204;2023-06-14T04:53:01;11.57;;;8.73;;
25905;SDS011;13713;52.552;13.204;2023-06-14T04:55:28;10.68;;;9.20;;
25905;SDS011;13713;52.552;13.204;2023-06-14T04:57:53;13.70;;;9.00;;
25905;SDS011;13713;52.552;13.204;2023-06-14T05:00:22;10.82;;;8.63;;
25905;SDS011;13713;52.552;13.204;2023-06-14T05:02:48;12.70;;;9.63;;
25905;SDS011;13713;52.552;13.204;2023-06-14T05:05:17;11.98;;;9.60;;
25905;SDS011;13713;52.552;13.204;2023-06-14T05:07:43;11.77;;;10.05;;
25905;SDS011;13713;52.552;13.204;2023-06-14T05:10:08;12.93;;;9.70;;
25905;SDS011;13713;52.552;13.204;2023-06-14T05:12:35;10.77;;;9.15;;
25905;SDS011;13713;52.552;13.204;2023-06-14T05:15:03;12.50;;;9.45;;
25905;SDS011;13713;52.552;13.204;2023-06-14T05:17:29;12.70;;;9.60;;
25905;SDS011;13713;52.552;13.204;2023-06-14T05:19:55;10.50;;;8.65;;
25905;SDS011;13713;52.552;13.204;2023-06-14T05:22:21;10.88;;;9.38;;
25905;SDS011;13713;52.552;13.204;2023-06-14T05:24:47;11.25;;;8.75;;
25905;SDS011;13713;52.552;13.204;2023-06-14T05:27:13;10.18;;;8.77;;
25905;SDS011;13713;52.552;13.204;2023-06-14T05:29:39;16.80;;;11.57;;
25905;SDS011;13713;52.552;13.204;2023-06-14T05:32:05;18.98;;;12.70;;
25905;SDS011;13713;52.552;13.204;2023-06-14T05:34:31;18.25;;;12.55;;
25905;SDS011;13713;52.552;13.204;2023-06-14T05:36:57;17.83;;;13.05;;
25905;SDS011;13713;52.552;13.204;2023-06-14T05:39:22;19.60;;;14.63;;
25905;SDS011;13713;52.552;13.204;2023-06-14T05:41:49;23.90;;;14.32;;
25905;SDS011;13713;52.552;13.204;2023-06-14T05:44:14;19.38;;;14.27;;
25905;SDS011;13713;52.552;13.204;2023-06-14T05:46:40;19.40;;;13.80;;
25905;SDS011;13713;52.552;13.204;2023-06-14T05:49:06;25.33;;;14.98;;
25905;SDS011;13713;52.552;13.204;2023-06-14T05:51:32;20.67;;;14.70;;
25905;SDS011;13713;52.552;13.204;2023-06-14T05:53:58;20.00;;;14.35;;
25905;SDS011;13713;52.552;13.204;2023-06-14T05:56:24;32.97;;;15.35;;
25905;SDS011;13713;52.552;13.204;2023-06-14T05:58:51;22.50;;;15.18;;
25905;SDS011;13713;52.552;13.204;2023-06-14T06:01:16;24.25;;;15.57;;
25905;SDS011;13713;52.552;13.204;2023-06-14T06:03:42;28.00;;;14.40;;
25905;SDS011;13713;52.552;13.204;2023-06-14T06:06:11;25.95;;;14.85;;
25905;SDS011;13713;52.552;13.204;2023-06-14T06:08:37;27.33;;;17.95;;
25905;SDS011;13713;52.552;13.204;2023-06-14T06:11:03;25.13;;;15.60;;
25905;SDS011;13713;52.552;13.204;2023-06-14T06:13:29;28.77;;;15.63;;
25905;SDS011;13713;52.552;13.204;2023-06-14T06:15:54;32.83;;;16.95;;
25905;SDS011;13713;52.552;13.204;2023-06-14T06:18:21;66.53;;;22.48;;
25905;SDS011;13713;52.552;13.204;2023-06-14T06:20:47;214.90;;;74.57;;
25905;SDS011;13713;52.552;13.204;2023-06-14T06:23:12;40.63;;;20.13;;
25905;SDS011;13713;52.552;13.204;2023-06-14T06:25:38;63.83;;;25.65;;
25905;SDS011;13713;52.552;13.204;2023-06-14T06:28:04;38.85;;;19.45;;
25905;SDS011;13713;52.552;13.204;2023-06-14T06:30:30;134.65;;;48.55;;
25905;SDS011;13713;52.552;13.204;2023-06-14T06:32:56;30.92;;;17.27;;
25905;SDS011;13713;52.552;13.204;2023-06-14T06:35:22;49.28;;;20.65;;
25905;SDS011;13713;52.552;13.204;2023-06-14T06:37:48;238.15;;;63.53;;
25905;SDS011;13713;52.552;13.204;2023-06-14T06:40:13;195.65;;;84.05;;
25905;SDS011;13713;52.552;13.204;2023-06-14T06:42:40;61.95;;;33.97;;
25905;SDS011;13713;52.552;13.204;2023-06-14T06:45:10;102.25;;;42.10;;
25905;SDS011;13713;52.552;13.204;2023-06-14T06:47:36;131.15;;;49.22;;
25905;SDS011;13713;52.552;13.204;2023-06-14T06:50:01;48.17;;;22.23;;
25905;SDS011;13713;52.552;13.204;2023-06-14T06:52:27;55.72;;;24.40;;
25905;SDS011;13713;52.552;13.204;2023-06-14T06:54:55;89.30;;;31.85;;
25905;SDS011;13713;52.552;13.204;2023-06-14T06:57:22;43.00;;;27.70;;
25905;SDS011;13713;52.552;13.204;2023-06-14T06:59:48;87.60;;;37.50;;
25905;SDS011;13713;52.552;13.204;2023-06-14T07:02:14;176.63;;;54.00;;
25905;SDS011;13713;52.552;13.204;2023-06-14T07:04:40;53.75;;;25.17;;
25905;SDS011;13713;52.552;13.204;2023-06-14T07:07:06;81.20;;;35.08;;
25905;SDS011;13713;52.552;13.204;2023-06-14T07:09:34;64.60;;;27.83;;
25905;SDS011;13713;52.552;13.204;2023-06-14T07:12:00;34.97;;;19.88;;
25905;SDS011;13713;52.552;13.204;2023-06-14T07:14:26;41.75;;;21.83;;
25905;SDS011;13713;52.552;13.204;2023-06-14T07:16:51;85.30;;;32.10;;
25905;SDS011;13713;52.552;13.204;2023-06-14T07:19:17;67.68;;;26.45;;
25905;SDS011;13713;52.552;13.204;2023-06-14T07:21:43;82.18;;;33.58;;
25905;SDS011;13713;52.552;13.204;2023-06-14T07:24:08;36.88;;;19.52;;
25905;SDS011;13713;52.552;13.204;2023-06-14T07:26:34;28.92;;;18.33;;
25905;SDS011;13713;52.552;13.204;2023-06-14T07:29:00;36.83;;;23.60;;
25905;SDS011;13713;52.552;13.204;2023-06-14T07:31:26;32.13;;;20.05;;
25905;SDS011;13713;52.552;13.204;2023-06-14T07:33:52;42.95;;;25.67;;
25905;SDS011;13713;52.552;13.204;2023-06-14T07:36:18;133.82;;;77.53;;
25905;SDS011;13713;52.552;13.204;2023-06-14T07:38:43;38.42;;;23.42;;
25905;SDS011;13713;52.552;13.204;2023-06-14T07:41:10;34.53;;;21.05;;
25905;SDS011;13713;52.552;13.204;2023-06-14T07:43:35;34.47;;;21.23;;
25905;SDS011;13713;52.552;13.204;2023-06-14T07:46:01;28.83;;;18.58;;
25905;SDS011;13713;52.552;13.204;2023-06-14T07:48:27;36.10;;;18.98;;
25905;SDS011;13713;52.552;13.204;2023-06-14T07:50:53;22.98;;;16.38;;
25905;SDS011;13713;52.552;13.204;2023-06-14T07:53:18;45.75;;;32.13;;
25905;SDS011;13713;52.552;13.204;2023-06-14T07:55:44;41.92;;;25.20;;
25905;SDS011;13713;52.552;13.204;2023-06-14T07:58:12;35.55;;;21.40;;
25905;SDS011;13713;52.552;13.204;2023-06-14T08:00:38;29.60;;;19.45;;
25905;SDS011;13713;52.552;13.204;2023-06-14T08:03:03;31.55;;;20.88;;
25905;SDS011;13713;52.552;13.204;2023-06-14T08:05:29;34.70;;;18.60;;
25905;SDS011;13713;52.552;13.204;2023-06-14T08:07:55;29.95;;;16.98;;
25905;SDS011;13713;52.552;13.204;2023-06-14T08:10:21;25.95;;;16.48;;
25905;SDS011;13713;52.552;13.204;2023-06-14T08:12:47;50.80;;;31.65;;
25905;SDS011;13713;52.552;13.204;2023-06-14T08:15:15;52.72;;;33.05;;
25905;SDS011;13713;52.552;13.204;2023-06-14T08:17:42;25.55;;;17.50;;
25905;SDS011;13713;52.552;13.204;2023-06-14T08:20:09;30.85;;;17.23;;
25905;SDS011;13713;52.552;13.204;2023-06-14T08:22:35;27.33;;;18.30;;
25905;SDS011;13713;52.552;13.204;2023-06-14T08:25:01;27.88;;;17.92;;
25905;SDS011;13713;52.552;13.204;2023-06-14T08:27:27;29.70;;;17.83;;
25905;SDS011;13713;52.552;13.204;2023-06-14T08:29:53;30.17;;;17.02;;
25905;SDS011;13713;52.552;13.204;2023-06-14T08:32:18;25.25;;;15.23;;
25905;SDS011;13713;52.552;13.204;2023-06-14T08:34:44;28.10;;;16.70;;
25905;SDS011;13713;52.552;13.204;2023-06-14T08:37:10;30.75;;;15.15;;
25905;SDS011;13713;52.552;13.204;2023-06-14T08:39:36;29.73;;;17.33;;
25905;SDS011;13713;52.552;13.204;2023-06-14T08:42:02;94.95;;;60.92;;
25905;SDS011;13713;52.552;13.204;2023-06-14T08:44:29;90.55;;;53.58;;
25905;SDS011;13713;52.552;13.204;2023-06-14T08:46:57;41.25;;;22.70;;
25905;SDS011;13713;52.552;13.204;2023-06-14T08:49:28;38.72;;;20.83;;
25905;SDS011;13713;52.552;13.204;2023-06-14T08:51:59;26.80;;;17.02;;
25905;SDS011;13713;52.552;13.204;2023-06-14T08:54:29;26.80;;;17.63;;
25905;SDS011;13713;52.552;13.204;2023-06-14T08:56:58;21.25;;;14.35;;
25905;SDS011;13713;52.552;13.204;2023-06-14T08:59:25;17.75;;;13.57;;
25905;SDS011;13713;52.552;13.204;2023-06-14T09:01:52;26.83;;;15.10;;
25905;SDS011;13713;52.552;13.204;2023-06-14T09:04:19;23.48;;;15.55;;
25905;SDS011;13713;52.552;13.204;2023-06-14T09:06:46;28.25;;;17.80;;
25905;SDS011;13713;52.552;13.204;2023-06-14T09:09:18;63.33;;;38.05;;
25905;SDS011;13713;52.552;13.204;2023-06-14T09:11:51;36.58;;;21.75;;
25905;SDS011;13713;52.552;13.204;2023-06-14T09:14:19;39.35;;;20.67;;
25905;SDS011;13713;52.552;13.204;2023-06-14T09:16:46;30.20;;;18.55;;
25905;SDS011;13713;52.552;13.204;2023-06-14T09:19:21;28.92;;;17.42;;
25905;SDS011;13713;52.552;13.204;2023-06-14T09:21:48;26.45;;;17.48;;
25905;SDS011;13713;52.552;13.204;2023-06-14T09:24:15;28.02;;;17.92;;
25905;SDS011;13713;52.552;13.204;2023-06-14T09:26:40;26.13;;;15.82;;
25905;SDS011;13713;52.552;13.204;2023-06-14T09:29:06;25.45;;;16.20;;
25905;SDS011;13713;52.552;13.204;2023-06-14T09:31:32;23.40;;;15.75;;
25905;SDS011;13713;52.552;13.204;2023-06-14T09:33:58;27.23;;;14.60;;
25905;SDS011;13713;52.552;13.204;2023-06-14T09:36:27;26.45;;;15.35;;
25905;SDS011;13713;52.552;13.204;2023-06-14T09:39:00;22.70;;;14.65;;
25905;SDS011;13713;52.552;13.204;2023-06-14T09:41:33;30.35;;;20.35;;
25905;SDS011;13713;52.552;13.204;2023-06-14T09:44:00;33.72;;;19.42;;
25905;SDS011;13713;52.552;13.204;2023-06-14T09:46:27;26.08;;;17.25;;
25905;SDS011;13713;52.552;13.204;2023-06-14T09:48:59;30.52;;;19.77;;
25905;SDS011;13713;52.552;13.204;2023-06-14T09:51:26;35.38;;;17.75;;
25905;SDS011;13713;52.552;13.204;2023-06-14T09:53:52;74.40;;;51.05;;
25905;SDS011;13713;52.552;13.204;2023-06-14T09:56:26;48.05;;;33.58;;
25905;SDS011;13713;52.552;13.204;2023-06-14T09:58:55;30.77;;;19.67;;
25905;SDS011;13713;52.552;13.204;2023-06-14T10:01:23;28.25;;;17.35;;
25905;SDS011;13713;52.552;13.204;2023-06-14T10:06:46;29.63;;;16.52;;
25905;SDS011;13713;52.552;13.204;2023-06-14T10:09:12;38.05;;;17.88;;
25905;SDS011;13713;52.552;13.204;2023-06-14T10:11:39;50.83;;;23.20;;
25905;SDS011;13713;52.552;13.204;2023-06-14T10:14:10;38.20;;;24.98;;
25905;SDS011;13713;52.552;13.204;2023-06-14T10:16:38;45.53;;;34.05;;
25905;SDS011;13713;52.552;13.204;2023-06-14T10:19:25;42.30;;;32.08;;
25905;SDS011;13713;52.552;13.204;2023-06-14T10:22:04;52.47;;;34.75;;
25905;SDS011;13713;52.552;13.204;2023-06-14T10:24:42;50.58;;;32.42;;
25905;SDS011;13713;52.552;13.204;2023-06-14T10:27:09;61.92;;;37.92;;
25905;SDS011;13713;52.552;13.204;2023-06-14T10:32:18;45.03;;;25.60;;
25905;SDS011;13713;52.552;13.204;2023-06-14T10:34:45;32.85;;;20.08;;
25905;SDS011;13713;52.552;13.204;2023-06-14T10:37:18;33.47;;;19.85;;
25905;SDS011;13713;52.552;13.204;2023-06-14T10:39:45;26.13;;;15.68;;
25905;SDS011;13713;52.552;13.204;2023-06-14T10:42:11;29.67;;;17.58;;
25905;SDS011;13713;52.552;13.204;2023-06-14T10:47:08;20.88;;;13.82;;
25905;SDS011;13713;52.552;13.204;2023-06-14T10:49:55;22.83;;;14.73;;
25905;SDS011;13713;52.552;13.204;2023-06-14T10:52:35;23.75;;;16.45;;
25905;SDS011;13713;52.552;13.204;2023-06-14T10:55:05;23.98;;;15.27;;
25905;SDS011;13713;52.552;13.204;2023-06-14T10:57:40;38.80;;;24.42;;
25905;SDS011;13713;52.552;13.204;2023-06-14T11:00:13;31.38;;;23.27;;
25905;SDS011;13713;52.552;13.204;2023-06-14T11:05:55;29.52;;;17.95;;
25905;SDS011;13713;52.552;13.204;2023-06-14T11:11:14;24.15;;;14.00;;
25905;SDS011;13713;52.552;13.204;2023-06-14T11:13:43;19.95;;;13.93;;
25905;SDS011;13713;52.552;13.204;2023-06-14T11:16:11;25.67;;;17.35;;
25905;SDS011;13713;52.552;13.204;2023-06-14T11:18:37;44.10;;;29.13;;
25905;SDS011;13713;52.552;13.204;2023-06-14T11:21:03;34.75;;;23.40;;
25905;SDS011;13713;52.552;13.204;2023-06-14T11:23:29;39.95;;;20.45;;
25905;SDS011;13713;52.552;13.204;2023-06-14T11:25:55;30.27;;;19.08;;
25905;SDS011;13713;52.552;13.204;2023-06-14T11:28:21;29.15;;;16.67;;
25905;SDS011;13713;52.552;13.204;2023-06-14T11:30:48;21.70;;;14.57;;
25905;SDS011;13713;52.552;13.204;2023-06-14T11:33:24;20.35;;;13.88;;
25905;SDS011;13713;52.552;13.204;2023-06-14T11:35:50;17.83;;;12.95;;
25905;SDS011;13713;52.552;13.204;2023-06-14T11:38:16;20.05;;;12.52;;
25905;SDS011;13713;52.552;13.204;2023-06-14T11:40:42;19.60;;;12.50;;
25905;SDS011;13713;52.552;13.204;2023-06-14T11:43:07;21.98;;;13.90;;
25905;SDS011;13713;52.552;13.204;2023-06-14T11:45:33;29.02;;;14.70;;
25905;SDS011;13713;52.552;13.204;2023-06-14T11:47:59;18.75;;;13.23;;
25905;SDS011;13713;52.552;13.204;2023-06-14T11:50:25;19.98;;;11.70;;
25905;SDS011;13713;52.552;13.204;2023-06-14T11:52:55;18.08;;;12.65;;
25905;SDS011;13713;52.552;13.204;2023-06-14T11:55:22;23.38;;;13.32;;
25905;SDS011;13713;52.552;13.204;2023-06-14T11:57:49;20.58;;;13.40;;
25905;SDS011;13713;52.552;13.204;2023-06-14T12:00:15;19.35;;;12.65;;
25905;SDS011;13713;52.552;13.204;2023-06-14T12:02:42;18.50;;;12.27;;
25905;SDS011;13713;52.552;13.204;2023-06-14T12:05:20;35.83;;;22.77;;
25905;SDS011;13713;52.552;13.204;2023-06-14T12:07:46;35.67;;;23.38;;
25905;SDS011;13713;52.552;13.204;2023-06-14T12:10:13;29.05;;;19.52;;
25905;SDS011;13713;52.552;13.204;2023-06-14T12:12:40;25.40;;;17.17;;
25905;SDS011;13713;52.552;13.204;2023-06-14T12:15:07;20.50;;;13.60;;
25905;SDS011;13713;52.552;13.204;2023-06-14T12:17:36;24.63;;;15.65;;
25905;SDS011;13713;52.552;13.204;2023-06-14T12:20:09;25.45;;;14.77;;
25905;SDS011;13713;52.552;13.204;2023-06-14T12:22:37;21.10;;;13.90;;
25905;SDS011;13713;52.552;13.204;2023-06-14T12:25:04;20.88;;;12.07;;
25905;SDS011;13713;52.552;13.204;2023-06-14T12:27:30;20.35;;;13.07;;
25905;SDS011;13713;52.552;13.204;2023-06-14T12:29:59;19.73;;;12.48;;
25905;SDS011;13713;52.552;13.204;2023-06-14T12:32:26;22.60;;;14.40;;
25905;SDS011;13713;52.552;13.204;2023-06-14T12:34:52;19.85;;;13.43;;
25905;SDS011;13713;52.552;13.204;2023-06-14T12:37:18;23.60;;;12.88;;
25905;SDS011;13713;52.552;13.204;2023-06-14T12:39:44;25.90;;;13.60;;
25905;SDS011;13713;52.552;13.204;2023-06-14T12:42:09;22.48;;;12.30;;
25905;SDS011;13713;52.552;13.204;2023-06-14T12:44:35;20.20;;;11.95;;
25905;SDS011;13713;52.552;13.204;2023-06-14T12:47:05;23.75;;;13.15;;
25905;SDS011;13713;52.552;13.204;2023-06-14T12:49:32;23.77;;;13.13;;
25905;SDS011;13713;52.552;13.204;2023-06-14T12:51:58;21.30;;;12.15;;
25905;SDS011;13713;52.552;13.204;2023-06-14T12:54:24;25.58;;;14.45;;
25905;SDS011;13713;52.552;13.204;2023-06-14T12:56:53;35.97;;;23.27;;
25905;SDS011;13713;52.552;13.204;2023-06-14T12:59:20;37.15;;;24.30;;
25905;SDS011;13713;52.552;13.204;2023-06-14T13:01:45;39.33;;;21.25;;
25905;SDS011;13713;52.552;13.204;2023-06-14T13:04:14;31.38;;;20.05;;
25905;SDS011;13713;52.552;13.204;2023-06-14T13:06:40;30.17;;;18.45;;
25905;SDS011;13713;52.552;13.204;2023-06-14T13:09:06;33.20;;;17.15;;
25905;SDS011;13713;52.552;13.204;2023-06-14T13:11:33;26.90;;;15.85;;
25905;SDS011;13713;52.552;13.204;2023-06-14T13:13:58;33.10;;;16.98;;
25905;SDS011;13713;52.552;13.204;2023-06-14T13:16:24;27.38;;;15.13;;
25905;SDS011;13713;52.552;13.204;2023-06-14T13:18:50;24.30;;;13.73;;
25905;SDS011;13713;52.552;13.204;2023-06-14T13:21:15;23.80;;;13.98;;
25905;SDS011;13713;52.552;13.204;2023-06-14T13:23:41;28.75;;;13.93;;
25905;SDS011;13713;52.552;13.204;2023-06-14T13:26:07;25.20;;;13.15;;
25905;SDS011;13713;52.552;13.204;2023-06-14T13:28:33;23.27;;;12.07;;
25905;SDS011;13713;52.552;13.204;2023-06-14T13:31:00;24.35;;;12.68;;
25905;SDS011;13713;52.552;13.204;2023-06-14T13:33:27;25.42;;;13.65;;
25905;SDS011;13713;52.552;13.204;2023-06-14T13:35:52;25.17;;;13.32;;
25905;SDS011;13713;52.552;13.204;2023-06-14T13:38:18;20.30;;;12.18;;
25905;SDS011;13713;52.552;13.204;2023-06-14T13:40:44;31.58;;;13.13;;
25905;SDS011;13713;52.552;13.204;2023-06-14T13:43:10;26.25;;;13.68;;
25905;SDS011;13713;52.552;13.204;2023-06-14T13:45:35;38.90;;;20.67;;
25905;SDS011;13713;52.552;13.204;2023-06-14T13:48:01;37.97;;;22.05;;
25905;SDS011;13713;52.552;13.204;2023-06-14T13:50:27;32.28;;;22.08;;
25905;SDS011;13713;52.552;13.204;2023-06-14T13:52:52;29.13;;;17.90;;
25905;SDS011;13713;52.552;13.204;2023-06-14T13:55:18;23.25;;;14.73;;
25905;SDS011;13713;52.552;13.204;2023-06-14T13:57:44;26.90;;;14.23;;
25905;SDS011;13713;52.552;13.204;2023-06-14T14:00:10;22.63;;;12.82;;
25905;SDS011;13713;52.552;13.204;2023-06-14T14:02:40;18.03;;;11.37;;
25905;SDS011;13713;52.552;13.204;2023-06-14T14:05:06;16.20;;;9.55;;
25905;SDS011;13713;52.552;13.204;2023-06-14T14:07:33;17.85;;;9.40;;
25905;SDS011;13713;52.552;13.204;2023-06-14T14:09:59;14.50;;;9.27;;
25905;SDS011;13713;52.552;13.204;2023-06-14T14:12:25;17.63;;;9.57;;
25905;SDS011;13713;52.552;13.204;2023-06-14T14:14:51;20.13;;;9.65;;
25905;SDS011;13713;52.552;13.204;2023-06-14T14:17:16;19.08;;;8.95;;
25905;SDS011;13713;52.552;13.204;2023-06-14T14:19:42;17.85;;;9.48;;
25905;SDS011;13713;52.552;13.204;2023-06-14T14:22:08;16.85;;;8.20;;
25905;SDS011;13713;52.552;13.204;2023-06-14T14:24:34;16.10;;;9.52;;
25905;SDS011;13713;52.552;13.204;2023-06-14T14:27:00;12.25;;;8.73;;
25905;SDS011;13713;52.552;13.204;2023-06-14T14:29:27;17.50;;;9.45;;
25905;SDS011;13713;52.552;13.204;2023-06-14T14:31:56;14.77;;;9.38;;
25905;SDS011;13713;52.552;13.204;2023-06-14T14:34:24;14.13;;;8.93;;